createdAt,value
2018-11-05T00:02:19.533Z,95992.89
2018-11-05T00:04:48.308Z,95982.14
2018-11-05T00:07:15.968Z,95983.58
2018-11-05T00:09:43.336Z,95986.85
2018-11-05T00:12:10.800Z,95990.97
2018-11-05T00:14:38.169Z,95984.70
2018-11-05T00:17:07.908Z,95983.94
2018-11-05T00:19:36.038Z,95983.17
2018-11-05T00:22:05.446Z,95985.77
2018-11-05T00:24:32.867Z,95983.00
2018-11-05T00:27:00.233Z,95969.70
2018-11-05T00:29:27.592Z,95972.47
2018-11-05T00:31:54.975Z,95974.04
2018-11-05T00:34:24.674Z,95969.56
2018-11-05T00:36:52.120Z,95936.26
2018-11-05T00:39:19.539Z,95956.45
2018-11-05T00:41:48.817Z,95962.04
2018-11-05T00:44:17.761Z,95953.41
2018-11-05T00:46:48.905Z,95958.02
2018-11-05T00:49:17.958Z,95953.36
2018-11-05T00:51:45.907Z,95942.75
2018-11-05T00:54:13.730Z,95953.45
2018-11-05T00:56:41.120Z,95971.63
2018-11-05T00:59:11.500Z,95975.16
2018-11-05T01:01:38.999Z,95977.36
2018-11-05T01:04:06.832Z,95972.61
2018-11-05T01:06:34.367Z,95970.38
2018-11-05T01:09:01.971Z,95964.11
2018-11-05T01:11:30.051Z,95954.17
2018-11-05T01:13:57.582Z,95949.51
2018-11-05T01:16:25.109Z,95940.73
2018-11-05T01:18:55.577Z,95932.85
2018-11-05T01:21:24.174Z,95924.44
2018-11-05T01:23:51.733Z,95924.94
2018-11-05T01:26:21.432Z,95920.82
2018-11-05T01:28:51.059Z,95923.64
2018-11-05T01:31:18.406Z,95914.19
2018-11-05T01:33:45.945Z,95915.58
2018-11-05T01:36:13.319Z,95912.67
2018-11-05T01:38:41.698Z,95913.16
2018-11-05T01:41:09.167Z,95911.38
2018-11-05T01:43:36.690Z,95913.20
2018-11-05T01:46:04.071Z,95903.99
2018-11-05T01:48:31.613Z,95907.34
2018-11-05T01:51:00.504Z,95898.34
2018-11-05T01:53:29.938Z,95898.92
2018-11-05T01:55:57.470Z,95895.17
2018-11-05T01:58:24.924Z,95892.84
2018-11-05T02:00:53.389Z,95885.33
2018-11-05T02:03:21.965Z,95889.22
2018-11-05T02:05:49.315Z,95895.48
2018-11-05T02:08:16.701Z,95889.48
2018-11-05T02:10:44.103Z,95875.52
2018-11-05T02:13:12.258Z,95872.92
2018-11-05T02:15:40.226Z,95882.05
2018-11-05T02:18:07.512Z,95874.81
2018-11-05T02:20:34.923Z,95872.75
2018-11-05T02:23:03.543Z,95875.25
2018-11-05T02:25:33.180Z,95870.52
2018-11-05T02:28:00.832Z,95862.87
2018-11-05T02:30:28.500Z,95871.50
2018-11-05T02:32:55.888Z,95870.42
2018-11-05T02:35:23.089Z,95873.02
2018-11-05T02:39:20.977Z,95867.08
2018-11-05T02:41:48.360Z,95870.11
2018-11-05T02:44:17.103Z,95869.21
2018-11-05T02:46:46.271Z,95872.66
2018-11-05T02:49:19.507Z,95870.91
2018-11-05T02:51:46.896Z,95872.97
2018-11-05T02:54:14.214Z,95873.58
2018-11-05T02:56:41.632Z,95869.65
2018-11-05T02:59:08.930Z,95869.25
2018-11-05T03:01:43.386Z,95866.30
2018-11-05T03:04:10.873Z,95870.05
2018-11-05T03:06:39.737Z,95867.45
2018-11-05T03:09:11.854Z,95868.48
2018-11-05T03:11:41.650Z,95877.68
2018-11-05T03:14:09.379Z,95880.33
2018-11-05T03:16:37.218Z,95871.16
2018-11-05T03:19:04.987Z,95861.81
2018-11-05T03:21:32.882Z,95862.13
2018-11-05T03:24:03.084Z,95861.22
2018-11-05T03:26:31.515Z,95870.48
2018-11-05T03:29:00.080Z,95857.19
2018-11-05T03:31:27.675Z,95862.19
2018-11-05T03:33:56.460Z,95860.23
2018-11-05T03:36:25.126Z,95862.82
2018-11-05T03:38:52.522Z,95861.08
2018-11-05T03:41:20.135Z,95855.83
2018-11-05T03:43:47.515Z,95850.92
2018-11-05T03:46:14.931Z,95849.26
2018-11-05T03:48:44.488Z,95849.41
2018-11-05T03:51:13.651Z,95850.95
2018-11-05T03:53:41.108Z,95856.22
2018-11-05T03:56:08.661Z,95855.19
2018-11-05T03:58:36.530Z,95851.03
2018-11-05T04:01:04.082Z,95857.16
2018-11-05T04:03:33.824Z,95853.27
2018-11-05T04:06:01.010Z,95857.78
2018-11-05T04:08:28.335Z,95857.16
2018-11-05T04:10:55.782Z,95855.28
2018-11-05T04:13:23.181Z,95854.83
2018-11-05T04:15:51.821Z,95852.84
2018-11-05T04:18:19.050Z,95856.24
2018-11-05T04:20:46.511Z,95860.05
2018-11-05T04:23:13.844Z,95856.41
2018-11-05T04:25:41.419Z,95859.88
2018-11-05T04:28:11.128Z,95855.97
2018-11-05T04:30:38.430Z,95842.38
2018-11-05T04:33:06.422Z,95834.36
2018-11-05T04:35:34.059Z,95828.03
2018-11-05T04:38:01.770Z,95829.33
2018-11-05T04:40:29.942Z,95830.30
2018-11-05T04:42:57.258Z,95803.06
2018-11-05T04:45:24.690Z,95833.25
2018-11-05T04:47:52.983Z,95836.69
2018-11-05T04:50:21.365Z,95826.92
2018-11-05T04:52:48.971Z,95828.58
2018-11-05T04:55:17.048Z,95836.17
2018-11-05T04:57:45.385Z,95847.30
2018-11-05T05:00:17.879Z,95853.41
2018-11-05T05:02:45.304Z,95855.00
2018-11-05T05:05:14.003Z,95854.20
2018-11-05T05:07:41.507Z,95855.58
2018-11-05T05:10:09.353Z,95844.95
2018-11-05T05:12:38.365Z,95841.72
2018-11-05T05:15:10.674Z,95837.85
2018-11-05T05:17:39.449Z,95840.95
2018-11-05T05:20:11.832Z,95846.45
2018-11-05T05:22:39.330Z,95834.52
2018-11-05T05:25:06.841Z,95848.38
2018-11-05T05:27:34.268Z,95844.48
2018-11-05T05:30:01.555Z,95836.00
2018-11-05T05:32:28.939Z,95834.87
2018-11-05T05:36:28.767Z,95836.53
2018-11-05T05:42:29.283Z,95823.00
2018-11-05T05:44:56.866Z,95822.48
2018-11-05T05:47:25.671Z,95814.89
2018-11-05T05:49:54.866Z,95815.90
2018-11-05T05:52:24.539Z,95820.47
2018-11-05T05:54:54.823Z,95818.80
2018-11-05T05:57:23.987Z,95838.70
2018-11-05T05:59:51.375Z,95833.88
2018-11-05T06:02:20.811Z,95843.12
2018-11-05T06:04:48.436Z,95831.84
2018-11-05T06:07:15.839Z,95838.78
2018-11-05T06:09:43.411Z,95855.02
2018-11-05T06:12:11.099Z,95859.55
2018-11-05T06:14:40.195Z,95856.22
2018-11-05T06:17:07.553Z,95850.97
2018-11-05T06:19:34.854Z,95849.12
2018-11-05T06:22:06.061Z,95843.04
2018-11-05T06:24:33.828Z,95843.70
2018-11-05T06:27:02.124Z,95844.31
2018-11-05T06:29:29.586Z,95851.34
2018-11-05T06:31:57.109Z,95848.84
2018-11-05T06:34:24.866Z,95845.33
2018-11-05T06:36:52.419Z,95845.52
2018-11-05T06:39:21.757Z,95855.59
2018-11-05T06:41:49.741Z,95845.52
2018-11-05T06:44:17.130Z,95857.08
2018-11-05T06:46:44.363Z,95865.20
2018-11-05T06:49:14.028Z,95850.30
2018-11-05T06:51:42.704Z,95839.45
2018-11-05T06:54:11.953Z,95842.32
2018-11-05T06:56:40.747Z,95833.34
2018-11-05T06:59:08.069Z,95836.12
2018-11-05T07:01:35.803Z,95832.70
2018-11-05T07:04:03.184Z,95836.72
2018-11-05T07:06:30.708Z,95831.73
2018-11-05T07:08:59.699Z,95828.98
2018-11-05T07:11:27.183Z,95834.23
2018-11-05T07:13:54.535Z,95834.14
2018-11-05T07:16:24.728Z,95837.09
2018-11-05T07:18:53.657Z,95855.78
2018-11-05T07:21:21.572Z,95859.39
2018-11-05T07:23:48.860Z,95865.37
2018-11-05T07:26:16.245Z,95860.60
2018-11-05T07:28:45.701Z,95859.27
2018-11-05T07:31:16.024Z,95856.83
2018-11-05T07:33:43.429Z,95855.59
2018-11-05T07:36:11.736Z,95861.16
2018-11-05T07:38:39.113Z,95859.58
2018-11-05T07:41:06.454Z,95849.47
2018-11-05T07:43:36.628Z,95846.86
2018-11-05T07:46:05.060Z,95855.45
2018-11-05T07:48:32.770Z,95866.48
2018-11-05T07:51:00.454Z,95864.06
2018-11-05T07:53:29.331Z,95875.88
2018-11-05T07:55:58.202Z,95886.84
2018-11-05T07:58:25.594Z,95873.03
2018-11-05T08:00:55.012Z,95879.91
2018-11-05T08:03:22.497Z,95876.27
2018-11-05T08:05:49.886Z,95875.34
2018-11-05T08:08:18.358Z,95868.88
2018-11-05T08:10:47.607Z,95865.19
2018-11-05T08:13:15.120Z,95869.95
2018-11-05T08:15:44.676Z,95882.02
2018-11-05T08:18:14.192Z,95883.20
2018-11-05T08:20:41.799Z,95887.57
2018-11-05T08:23:10.354Z,95904.67
2018-11-05T08:25:39.092Z,95909.75
2018-11-05T08:28:07.229Z,95902.38
2018-11-05T08:30:35.580Z,95889.50
2018-11-05T08:33:04.180Z,95883.52
2018-11-05T08:35:33.276Z,95888.24
2018-11-05T08:38:00.770Z,95893.94
2018-11-05T08:40:28.820Z,95891.14
2018-11-05T08:42:58.638Z,95884.69
2018-11-05T08:45:28.065Z,95882.07
2018-11-05T08:47:57.600Z,95880.03
2018-11-05T08:50:27.503Z,95874.31
2018-11-05T08:52:54.803Z,95871.02
2018-11-05T08:55:24.871Z,95869.23
2018-11-05T08:57:52.256Z,95863.27
2018-11-05T09:00:25.345Z,95853.29
2018-11-05T09:02:55.141Z,95848.72
2018-11-05T09:05:24.165Z,95839.32
2018-11-05T09:07:53.061Z,95837.86
2018-11-05T09:10:20.818Z,95838.53
2018-11-05T09:12:50.210Z,95825.11
2018-11-05T09:15:18.904Z,95824.80
2018-11-05T09:17:46.666Z,95848.77
2018-11-05T09:20:15.215Z,95863.30
2018-11-05T09:22:44.380Z,95875.84
2018-11-05T09:25:12.667Z,95857.73
2018-11-05T09:27:40.078Z,95864.29
2018-11-05T09:30:11.459Z,95858.84
2018-11-05T09:32:39.845Z,95862.36
2018-11-05T09:35:07.874Z,95840.39
2018-11-05T09:37:35.303Z,95841.70
2018-11-05T09:40:04.710Z,95837.89
2018-11-05T09:42:32.203Z,95853.34
2018-11-05T09:44:59.637Z,95839.64
2018-11-05T09:47:27.005Z,95848.43
2018-11-05T09:49:56.480Z,95854.50
2018-11-05T09:52:25.488Z,95854.09
2018-11-05T09:54:52.961Z,95843.38
2018-11-05T09:57:20.359Z,95841.36
2018-11-05T09:59:48.620Z,95845.52
2018-11-05T10:02:17.315Z,95844.02
2018-11-05T10:04:45.100Z,95844.60
2018-11-05T10:07:13.715Z,95846.81
2018-11-05T10:09:42.116Z,95850.49
2018-11-05T10:12:11.630Z,95850.02
2018-11-05T10:14:41.954Z,95844.38
2018-11-05T10:17:12.591Z,95838.87
2018-11-05T10:19:41.522Z,95844.52
2018-11-05T10:22:11.072Z,95830.24
2018-11-05T10:24:41.099Z,95833.69
2018-11-05T10:27:08.411Z,95834.50
2018-11-05T10:29:36.591Z,95828.68
2018-11-05T10:32:05.561Z,95822.06
2018-11-05T10:34:38.986Z,95828.28
2018-11-05T10:37:08.267Z,95829.34
2018-11-05T10:39:38.066Z,95821.98
2018-11-05T10:42:05.605Z,95818.12
2018-11-05T10:44:36.044Z,95810.97
2018-11-05T10:47:03.939Z,95804.21
2018-11-05T10:49:32.101Z,95793.47
2018-11-05T10:52:04.396Z,95794.61
2018-11-05T10:54:32.016Z,95793.77
2018-11-05T10:56:59.959Z,95794.14
2018-11-05T10:59:27.306Z,95782.69
2018-11-05T11:02:03.155Z,95798.20
2018-11-05T11:04:31.939Z,95801.92
2018-11-05T11:06:59.638Z,95799.38
2018-11-05T11:09:28.711Z,95787.09
2018-11-05T11:11:58.723Z,95786.42
2018-11-05T11:14:26.116Z,95781.29
2018-11-05T11:16:55.198Z,95775.27
2018-11-05T11:19:22.738Z,95771.16
2018-11-05T11:21:50.826Z,95765.06
2018-11-05T11:24:19.234Z,95759.59
2018-11-05T11:26:49.759Z,95765.38
2018-11-05T11:29:18.165Z,95759.62
2018-11-05T11:31:45.408Z,95750.84
2018-11-05T11:34:12.938Z,95755.89
2018-11-05T11:36:40.594Z,95751.20
2018-11-05T11:39:10.678Z,95738.16
2018-11-05T11:41:40.831Z,95739.02
2018-11-05T11:44:09.283Z,95738.87
2018-11-05T11:46:37.154Z,95739.20
2018-11-05T11:49:05.051Z,95736.81
2018-11-05T11:51:33.963Z,95724.19
2018-11-05T11:54:02.214Z,95718.15
2018-11-05T11:56:29.669Z,95716.59
2018-11-05T11:58:57.846Z,95720.27
2018-11-05T12:01:27.254Z,95715.44
2018-11-05T12:03:56.422Z,95707.05
2018-11-05T12:06:23.829Z,95709.70
2018-11-05T12:08:51.530Z,95702.34
2018-11-05T12:11:18.987Z,95695.20
2018-11-05T12:13:46.987Z,95693.61
2018-11-05T12:16:14.517Z,95689.06
2018-11-05T12:18:44.226Z,95697.28
2018-11-05T12:21:11.619Z,95691.42
2018-11-05T12:23:40.693Z,95685.42
2018-11-05T12:26:08.068Z,95683.31
2018-11-05T12:28:36.708Z,95680.54
2018-11-05T12:31:06.770Z,95682.74
2018-11-05T12:33:36.484Z,95675.66
2018-11-05T12:36:04.638Z,95671.28
2018-11-05T12:38:32.305Z,95675.55
2018-11-05T12:41:02.067Z,95675.69
2018-11-05T12:43:29.433Z,95678.09
2018-11-05T12:45:56.817Z,95684.87
2018-11-05T12:48:25.954Z,95686.80
2018-11-05T12:50:54.663Z,95680.56
2018-11-05T12:53:22.281Z,95685.29
2018-11-05T12:55:50.364Z,95685.52
2018-11-05T12:58:17.877Z,95683.67
2018-11-05T13:00:45.257Z,95680.75
2018-11-05T13:03:12.593Z,95683.11
2018-11-05T13:05:39.994Z,95682.34
2018-11-05T13:08:12.985Z,95679.09
2018-11-05T13:10:40.660Z,95678.03
2018-11-05T13:13:08.445Z,95668.31
2018-11-05T13:15:36.030Z,95660.26
2018-11-05T13:18:04.549Z,95650.02
2018-11-05T13:20:32.406Z,95658.25
2018-11-05T13:23:01.794Z,95656.55
2018-11-05T13:25:31.264Z,95654.11
2018-11-05T13:28:00.191Z,95659.75
2018-11-05T13:30:28.758Z,95662.84
2018-11-05T13:32:56.208Z,95656.81
2018-11-05T13:35:24.095Z,95654.70
2018-11-05T13:37:53.040Z,95654.20
2018-11-05T13:40:22.922Z,95653.48
2018-11-05T13:42:52.621Z,95647.16
2018-11-05T13:45:21.229Z,95650.52
2018-11-05T13:47:49.932Z,95649.97
2018-11-05T13:50:18.204Z,95651.23
2018-11-05T13:52:45.304Z,95653.54
2018-11-05T13:55:15.219Z,95658.67
2018-11-05T13:57:45.033Z,95654.42
2018-11-05T14:00:15.576Z,95660.63
2018-11-05T14:02:44.874Z,95660.74
2018-11-05T14:05:12.964Z,95668.77
2018-11-05T14:07:40.455Z,95676.65
2018-11-05T14:10:11.503Z,95676.59
2018-11-05T14:12:40.295Z,95677.73
2018-11-05T14:15:08.591Z,95668.70
2018-11-05T14:17:36.654Z,95670.42
2018-11-05T14:20:04.729Z,95665.05
2018-11-05T14:22:32.149Z,95674.30
2018-11-05T14:24:59.871Z,95664.43
2018-11-05T14:27:30.617Z,95663.23
2018-11-05T14:30:00.503Z,95666.02
2018-11-05T14:32:27.534Z,95661.50
2018-11-05T14:37:16.784Z,95671.30
2018-11-05T14:39:44.132Z,95667.91
2018-11-05T14:42:12.072Z,95668.50
2018-11-05T14:44:39.474Z,95662.89
2018-11-05T14:47:08.477Z,95657.03
2018-11-05T14:49:37.928Z,95660.22
2018-11-05T14:52:05.949Z,95663.81
2018-11-05T14:54:35.095Z,95667.64
2018-11-05T14:57:05.744Z,95669.77
2018-11-05T14:59:33.371Z,95659.41
2018-11-05T15:02:07.193Z,95657.66
2018-11-05T15:04:35.926Z,95656.14
2018-11-05T15:07:03.616Z,95669.85
2018-11-05T15:09:31.009Z,95667.25
2018-11-05T15:12:00.256Z,95669.59
2018-11-05T15:14:28.151Z,95670.16
2018-11-05T15:16:58.616Z,95662.80
2018-11-05T15:19:28.133Z,95664.61
2018-11-05T15:21:55.253Z,95661.98
2018-11-05T15:24:24.715Z,95658.18
2018-11-05T15:26:53.373Z,95658.78
2018-11-05T15:29:21.017Z,95661.23
2018-11-05T15:31:48.696Z,95673.88
2018-11-05T15:34:17.250Z,95662.52
2018-11-05T15:36:46.908Z,95662.66
2018-11-05T15:39:14.953Z,95670.25
2018-11-05T15:41:42.840Z,95665.02
2018-11-05T15:44:10.164Z,95675.56
2018-11-05T15:46:38.222Z,95670.47
2018-11-05T15:49:08.886Z,95668.73
2018-11-05T15:51:37.682Z,95667.52
2018-11-05T15:54:05.592Z,95672.59
2018-11-05T15:56:33.693Z,95676.80
2018-11-05T15:59:01.597Z,95676.22
2018-11-05T16:01:31.044Z,95679.86
2018-11-05T16:03:58.538Z,95680.69
2018-11-05T16:06:25.876Z,95684.58
2018-11-05T16:08:55.464Z,95694.69
2018-11-05T16:11:23.067Z,95694.07
2018-11-05T16:13:52.492Z,95712.25
2018-11-05T16:16:20.825Z,95704.88
2018-11-05T16:18:48.653Z,95704.99
2018-11-05T16:21:16.977Z,95707.91
2018-11-05T16:23:44.607Z,95715.25
2018-11-05T16:26:14.310Z,95715.58
2018-11-05T16:28:44.040Z,95713.32
2018-11-05T16:31:13.492Z,95713.98
2018-11-05T16:33:44.049Z,95715.20
2018-11-05T16:36:11.911Z,95721.91
2018-11-05T16:38:39.468Z,95714.07
2018-11-05T16:41:09.897Z,95712.72
2018-11-05T16:43:37.284Z,95714.58
2018-11-05T16:46:05.914Z,95714.16
2018-11-05T16:48:33.167Z,95710.48
2018-11-05T16:51:00.744Z,95710.83
2018-11-05T16:53:28.039Z,95702.84
2018-11-05T16:55:58.538Z,95713.45
2018-11-05T16:58:26.035Z,95712.40
2018-11-05T17:00:53.485Z,95707.80
2018-11-05T17:03:21.380Z,95704.83
2018-11-05T17:05:49.767Z,95704.53
2018-11-05T17:08:17.443Z,95712.59
2018-11-05T17:10:44.921Z,95712.25
2018-11-05T17:13:12.491Z,95712.56
2018-11-05T17:15:39.827Z,95712.53
2018-11-05T17:18:07.234Z,95719.94
2018-11-05T17:20:34.886Z,95720.59
2018-11-05T17:23:02.414Z,95718.66
2018-11-05T17:25:30.523Z,95726.34
2018-11-05T17:28:00.217Z,95735.06
2018-11-05T17:30:31.084Z,95731.79
2018-11-05T17:32:58.497Z,95741.47
2018-11-05T17:35:27.573Z,95735.00
2018-11-05T17:37:54.941Z,95743.38
2018-11-05T17:40:23.185Z,95745.81
2018-11-05T17:42:51.324Z,95750.28
2018-11-05T17:45:19.884Z,95750.13
2018-11-05T17:47:49.720Z,95749.44
2018-11-05T17:50:19.482Z,95756.11
2018-11-05T17:52:48.121Z,95763.30
2018-11-05T17:55:17.642Z,95760.84
2018-11-05T17:57:48.555Z,95767.15
2018-11-05T18:00:19.198Z,95764.19
2018-11-05T18:02:46.587Z,95758.39
2018-11-05T18:05:14.324Z,95764.69
2018-11-05T18:07:43.374Z,95759.96
2018-11-05T18:10:10.865Z,95762.09
2018-11-05T18:12:38.356Z,95767.22
2018-11-05T18:15:09.198Z,95762.56
2018-11-05T18:17:39.937Z,95756.99
2018-11-05T18:20:08.496Z,95764.14
2018-11-05T18:22:37.589Z,95761.77
2018-11-05T18:25:06.471Z,95766.40
2018-11-05T18:27:36.282Z,95760.84
2018-11-05T18:30:04.559Z,95757.06
2018-11-05T18:32:32.044Z,95752.98
2018-11-05T18:34:59.824Z,95761.16
2018-11-05T18:37:28.072Z,95746.61
2018-11-05T18:39:57.055Z,95748.03
2018-11-05T18:42:24.770Z,95748.77
2018-11-05T18:44:52.903Z,95746.16
2018-11-05T18:47:21.508Z,95746.03
2018-11-05T18:49:50.331Z,95752.31
2018-11-05T18:52:18.347Z,95751.27
2018-11-05T18:54:46.903Z,95748.91
2018-11-05T18:57:14.456Z,95747.11
2018-11-05T18:59:42.655Z,95756.83
2018-11-05T19:02:16.281Z,95763.70
2018-11-05T19:04:45.227Z,95763.80
2018-11-05T19:07:13.875Z,95762.39
2018-11-05T19:09:41.459Z,95767.46
2018-11-05T19:12:09.667Z,95771.48
2018-11-05T19:14:39.203Z,95775.03
2018-11-05T19:17:06.843Z,95776.79
2018-11-05T19:19:34.301Z,95774.89
2018-11-05T19:22:01.673Z,95779.14
2018-11-05T19:24:29.347Z,95772.18
2018-11-05T19:26:56.571Z,95775.73
2018-11-05T19:29:24.050Z,95773.83
2018-11-05T19:31:51.688Z,95774.88
2018-11-05T19:34:20.712Z,95785.98
2018-11-05T19:36:49.962Z,95775.08
2018-11-05T19:39:17.285Z,95786.55
2018-11-05T19:41:47.363Z,95791.28
2018-11-05T19:44:14.820Z,95795.97
2018-11-05T19:46:42.287Z,95798.42
2018-11-05T19:49:13.099Z,95798.66
2018-11-05T19:51:41.485Z,95800.16
2018-11-05T19:54:09.506Z,95794.41
2018-11-05T19:56:37.943Z,95795.66
2018-11-05T19:59:06.113Z,95793.05
2018-11-05T20:01:35.817Z,95796.23
2018-11-05T20:04:03.666Z,95799.64
2018-11-05T20:06:32.627Z,95800.59
2018-11-05T20:09:02.806Z,95798.66
2018-11-05T20:11:30.623Z,95802.55
2018-11-05T20:13:57.946Z,95806.09
2018-11-05T20:16:28.686Z,95805.59
2018-11-05T20:18:56.121Z,95812.58
2018-11-05T20:21:25.299Z,95812.91
2018-11-05T20:23:52.895Z,95807.98
2018-11-05T20:26:20.797Z,95806.90
2018-11-05T20:28:48.304Z,95806.16
2018-11-05T20:31:17.430Z,95806.16
2018-11-05T20:33:45.642Z,95814.80
2018-11-05T20:36:14.376Z,95808.14
2018-11-05T20:38:41.770Z,95807.43
2018-11-05T20:41:09.187Z,95808.67
2018-11-05T20:43:37.563Z,95808.28
2018-11-05T20:46:05.181Z,95809.97
2018-11-05T20:48:32.863Z,95817.02
2018-11-05T20:51:00.215Z,95811.34
2018-11-05T20:53:27.645Z,95812.70
2018-11-05T20:55:55.325Z,95810.56
2018-11-05T20:58:24.658Z,95812.77
2018-11-05T21:00:52.070Z,95810.92
2018-11-05T21:03:20.453Z,95811.59
2018-11-05T21:05:48.063Z,95815.39
2018-11-05T21:08:16.034Z,95815.23
2018-11-05T21:10:43.551Z,95808.64
2018-11-05T21:13:11.217Z,95807.93
2018-11-05T21:15:38.716Z,95808.87
2018-11-05T21:18:08.825Z,95805.30
2018-11-05T21:23:28.956Z,95805.80
2018-11-05T21:25:57.604Z,95810.74
2018-11-05T21:28:25.102Z,95810.30
2018-11-05T21:30:54.232Z,95811.10
2018-11-05T21:33:22.503Z,95811.29
2018-11-05T21:35:49.840Z,95812.72
2018-11-05T21:38:18.037Z,95808.95
2018-11-05T21:40:47.623Z,95809.54
2018-11-05T21:43:16.005Z,95811.51
2018-11-05T21:45:45.600Z,95807.84
2018-11-05T21:48:13.457Z,95810.84
2018-11-05T21:50:40.714Z,95807.00
2018-11-05T21:53:11.195Z,95801.33
2018-11-05T21:55:39.368Z,95794.27
2018-11-05T21:58:06.644Z,95801.81
2018-11-05T22:00:34.334Z,95799.53
2018-11-05T22:03:03.994Z,95800.10
2018-11-05T22:05:31.630Z,95796.98
2018-11-05T22:07:59.024Z,95795.86
2018-11-05T22:10:26.326Z,95792.33
2018-11-05T22:12:53.714Z,95791.75
2018-11-05T22:15:21.218Z,95798.50
2018-11-05T22:17:50.255Z,95790.63
2018-11-05T22:20:18.545Z,95788.92
2018-11-05T22:22:46.124Z,95794.16
2018-11-05T22:25:15.805Z,95792.33
2018-11-05T22:27:43.542Z,95804.53
2018-11-05T22:30:11.422Z,95802.30
2018-11-05T22:32:39.177Z,95801.09
2018-11-05T22:35:08.192Z,95794.92
2018-11-05T22:37:36.663Z,95793.98
2018-11-05T22:40:07.083Z,95795.19
2018-11-05T22:42:35.256Z,95794.16
2018-11-05T22:45:02.679Z,95795.95
2018-11-05T22:47:32.307Z,95793.79
2018-11-05T22:50:01.849Z,95799.60
2018-11-05T22:52:29.560Z,95802.70
2018-11-05T22:55:08.430Z,95800.27
2018-11-05T22:57:39.816Z,95793.92
2018-11-05T23:00:26.660Z,95795.36
2018-11-05T23:03:01.671Z,95796.83
2018-11-05T23:05:31.369Z,95795.63
2018-11-05T23:07:58.838Z,95794.45
2018-11-05T23:10:27.666Z,95793.25
2018-11-05T23:12:55.043Z,95790.36
2018-11-05T23:15:22.393Z,95790.45
2018-11-05T23:17:50.110Z,95782.61
2018-11-05T23:20:17.456Z,95767.02
2018-11-05T23:22:44.927Z,95785.93
2018-11-05T23:25:13.062Z,95786.28
2018-11-05T23:27:40.653Z,95784.09
2018-11-05T23:30:09.436Z,95784.54
2018-11-05T23:32:37.629Z,95790.39
2018-11-05T23:35:06.033Z,95786.41
2018-11-05T23:37:33.310Z,95783.38
2018-11-05T23:40:00.774Z,95780.24
2018-11-05T23:42:28.198Z,95777.89
2018-11-05T23:44:55.576Z,95781.58
2018-11-05T23:47:27.969Z,95777.95
2018-11-05T23:49:55.565Z,95778.34
2018-11-05T23:52:25.441Z,95781.58
2018-11-05T23:54:52.963Z,95771.39
2018-11-05T23:57:22.581Z,95765.13
2018-11-05T23:59:50.599Z,95767.14
